Time;durP1;ratioP1;P1;durP2;ratioP2;P2;SDS_P1;SDS_P2;PMS_P1;PMS_P2;Temp;Humidity;BMP_temperature;BMP_pressure;BME280_temperature;BME280_humidity;BME280_pressure;Samples;Min_cycle;Max_cycle;Signal;HPM_P1;HPM_P2
2023/09/12 00:01:47;;;;;;;15.53;7.80;;;;;;;;;;4898406;29;20188;-75
2023/09/12 00:04:13;;;;;;;15.60;8.00;;;;;;;;;;4907647;29;20188;-75
2023/09/12 00:06:39;;;;;;;13.07;7.23;;;;;;;;;;4895346;29;20206;-76
2023/09/12 00:09:05;;;;;;;14.67;7.73;;;;;;;;;;4898144;29;20243;-76
2023/09/12 00:11:32;;;;;;;15.20;7.40;;;;;;;;;;4906450;29;20191;-75
2023/09/12 00:14:01;;;;;;;12.67;7.40;;;;;;;;;;4898851;29;20187;-75
2023/09/12 00:16:27;;;;;;;11.67;6.80;;;;;;;;;;4898851;29;20291;-76
2023/09/12 00:18:54;;;;;;;9.53;6.37;;;;;;;;;;4914414;29;20218;-75
2023/09/12 00:21:20;;;;;;;17.03;6.83;;;;;;;;;;4912669;29;20191;-75
2023/09/12 00:23:47;;;;;;;12.90;7.10;;;;;;;;;;4917187;29;20208;-75
2023/09/12 00:26:13;;;;;;;16.10;6.90;;;;;;;;;;4916676;29;20393;-76
2023/09/12 00:28:40;;;;;;;11.90;6.90;;;;;;;;;;4913465;29;20238;-77
2023/09/12 00:31:06;;;;;;;9.83;6.83;;;;;;;;;;4906538;29;20786;-76
2023/09/12 00:33:32;;;;;;;11.87;6.27;;;;;;;;;;4908607;29;20197;-76
2023/09/12 00:35:58;;;;;;;12.43;7.33;;;;;;;;;;4916684;29;20289;-76
2023/09/12 00:38:24;;;;;;;13.97;6.63;;;;;;;;;;4914419;29;20210;-76
2023/09/12 00:40:51;;;;;;;13.80;6.93;;;;;;;;;;4916055;29;20215;-77
2023/09/12 00:43:17;;;;;;;13.50;7.73;;;;;;;;;;4915769;29;20226;-78
2023/09/12 00:45:43;;;;;;;9.07;6.53;;;;;;;;;;4910115;29;20242;-77
2023/09/12 00:48:10;;;;;;;15.37;6.90;;;;;;;;;;4910039;29;20186;-76
2023/09/12 00:50:37;;;;;;;14.33;6.67;;;;;;;;;;4915798;29;20194;-76
2023/09/12 00:53:03;;;;;;;11.20;7.30;;;;;;;;;;4915224;29;20217;-76
2023/09/12 00:55:31;;;;;;;10.73;6.10;;;;;;;;;;4916131;29;20305;-77
2023/09/12 00:57:57;;;;;;;12.17;6.37;;;;;;;;;;4912308;29;20197;-80
2023/09/12 01:00:23;;;;;;;11.63;6.33;;;;;;;;;;4920465;29;20217;-77
2023/09/12 01:02:51;;;;;;;10.10;6.50;;;;;;;;;;4924855;29;20190;-78
2023/09/12 01:05:17;;;;;;;13.10;6.67;;;;;;;;;;4914291;29;20215;-76
2023/09/12 01:07:44;;;;;;;11.03;6.37;;;;;;;;;;4913733;29;20194;-78
2023/09/12 01:10:11;;;;;;;13.20;6.50;;;;;;;;;;4915064;29;20194;-76
2023/09/12 01:12:37;;;;;;;13.77;6.40;;;;;;;;;;4917117;29;20250;-76
2023/09/12 01:15:08;;;;;;;12.37;6.30;;;;;;;;;;4912354;29;20274;-77
2023/09/12 01:17:34;;;;;;;15.57;7.20;;;;;;;;;;4907009;29;20202;-77
2023/09/12 01:20:03;;;;;;;17.80;7.27;;;;;;;;;;4913602;29;20685;-76
2023/09/12 01:22:45;;;;;;;9.97;6.90;;;;;;;;;;4907762;29;20187;-76
2023/09/12 01:25:12;;;;;;;12.57;7.03;;;;;;;;;;4911180;29;20218;-77
2023/09/12 01:27:42;;;;;;;15.37;7.93;;;;;;;;;;4914272;29;20766;-79
2023/09/12 01:30:09;;;;;;;15.03;8.03;;;;;;;;;;4902285;29;20187;-76
2023/09/12 01:32:37;;;;;;;10.50;7.20;;;;;;;;;;4917149;29;20713;-78
2023/09/12 01:35:06;;;;;;;10.87;7.50;;;;;;;;;;4910402;29;20203;-77
2023/09/12 01:37:32;;;;;;;10.27;6.70;;;;;;;;;;4916614;29;20284;-76
2023/09/12 01:39:59;;;;;;;13.13;7.20;;;;;;;;;;4895750;29;20217;-76
2023/09/12 01:42:28;;;;;;;13.87;7.37;;;;;;;;;;4915588;29;20222;-76
2023/09/12 01:44:58;;;;;;;10.47;6.47;;;;;;;;;;4916025;29;20205;-78
2023/09/12 01:47:25;;;;;;;12.93;6.27;;;;;;;;;;4916376;29;20762;-76
2023/09/12 01:49:53;;;;;;;10.43;6.90;;;;;;;;;;4915438;29;20236;-80
2023/09/12 01:52:20;;;;;;;11.60;7.33;;;;;;;;;;4921803;29;20178;-76
2023/09/12 01:54:47;;;;;;;11.77;6.83;;;;;;;;;;4909527;29;20183;-76
2023/09/12 01:57:15;;;;;;;13.73;6.97;;;;;;;;;;4930663;29;20778;-76
2023/09/12 01:59:41;;;;;;;14.10;7.00;;;;;;;;;;4915376;29;20269;-77
2023/09/12 02:02:07;;;;;;;13.37;7.37;;;;;;;;;;4899147;29;20524;-78
2023/09/12 02:04:33;;;;;;;15.47;7.33;;;;;;;;;;4915461;29;20206;-76
2023/09/12 02:06:59;;;;;;;11.23;7.00;;;;;;;;;;4905759;29;20203;-76
2023/09/12 02:09:26;;;;;;;10.93;7.17;;;;;;;;;;4918885;29;20193;-76
2023/09/12 02:11:52;;;;;;;12.90;6.93;;;;;;;;;;4926791;29;20186;-76
2023/09/12 02:14:18;;;;;;;11.13;6.60;;;;;;;;;;4919085;29;20194;-76
2023/09/12 02:16:45;;;;;;;10.37;6.77;;;;;;;;;;4922236;29;20229;-78
2023/09/12 02:19:11;;;;;;;12.47;6.93;;;;;;;;;;4908139;29;20206;-77
2023/09/12 02:21:37;;;;;;;14.30;7.40;;;;;;;;;;4907481;29;20198;-76
2023/09/12 02:24:03;;;;;;;11.93;6.73;;;;;;;;;;4923062;29;20235;-76
2023/09/12 02:26:30;;;;;;;15.27;7.60;;;;;;;;;;4906962;29;20275;-76
2023/09/12 02:28:56;;;;;;;12.17;7.67;;;;;;;;;;4916882;29;20209;-76
2023/09/12 02:31:22;;;;;;;10.97;7.60;;;;;;;;;;4916156;29;20303;-76
2023/09/12 02:33:48;;;;;;;10.53;7.93;;;;;;;;;;4915566;29;20721;-76
2023/09/12 02:36:14;;;;;;;13.10;7.67;;;;;;;;;;4909468;29;20298;-76
2023/09/12 02:38:40;;;;;;;12.50;8.23;;;;;;;;;;4916378;29;20218;-76
2023/09/12 02:41:07;;;;;;;13.00;8.40;;;;;;;;;;4909223;29;20218;-76
2023/09/12 02:43:33;;;;;;;15.03;8.33;;;;;;;;;;4915970;29;20269;-76
2023/09/12 02:45:59;;;;;;;12.17;8.80;;;;;;;;;;4916241;29;20203;-76
2023/09/12 02:48:25;;;;;;;13.47;8.70;;;;;;;;;;4895299;29;20241;-78
2023/09/12 02:50:51;;;;;;;14.37;8.57;;;;;;;;;;4911751;29;20202;-78
2023/09/12 02:53:17;;;;;;;19.30;9.87;;;;;;;;;;4915245;29;20199;-77
2023/09/12 02:55:44;;;;;;;13.93;9.20;;;;;;;;;;4915852;29;20225;-76
2023/09/12 02:58:10;;;;;;;13.07;8.97;;;;;;;;;;4913164;29;20223;-76
2023/09/12 03:00:40;;;;;;;16.20;9.23;;;;;;;;;;4913774;29;20322;-76
2023/09/12 03:03:08;;;;;;;15.10;8.33;;;;;;;;;;4912933;29;20193;-76
2023/09/12 03:05:35;;;;;;;13.63;8.80;;;;;;;;;;4918062;29;20525;-76
2023/09/12 03:08:03;;;;;;;18.70;9.53;;;;;;;;;;4915062;29;20658;-77
2023/09/12 03:10:29;;;;;;;13.33;9.40;;;;;;;;;;4921688;29;20185;-76
2023/09/12 03:12:55;;;;;;;17.20;9.67;;;;;;;;;;4915988;29;20197;-76
2023/09/12 03:15:21;;;;;;;14.77;9.20;;;;;;;;;;4913444;29;20210;-76
2023/09/12 03:17:48;;;;;;;13.50;8.63;;;;;;;;;;4917290;29;20199;-77
2023/09/12 03:20:14;;;;;;;14.07;8.50;;;;;;;;;;4906822;29;20238;-78
2023/09/12 03:22:40;;;;;;;15.20;8.27;;;;;;;;;;4917111;29;20579;-76
2023/09/12 03:25:07;;;;;;;14.33;7.87;;;;;;;;;;4898207;29;20270;-77
2023/09/12 03:27:33;;;;;;;11.10;7.30;;;;;;;;;;4911841;29;20197;-76
2023/09/12 03:30:00;;;;;;;13.17;7.60;;;;;;;;;;4915176;29;20460;-76
2023/09/12 03:32:26;;;;;;;15.03;7.43;;;;;;;;;;4915102;29;20190;-78
2023/09/12 03:34:52;;;;;;;12.77;7.33;;;;;;;;;;4918248;29;20571;-79
2023/09/12 03:37:18;;;;;;;11.23;6.80;;;;;;;;;;4919331;29;20213;-76
2023/09/12 03:39:45;;;;;;;13.97;7.20;;;;;;;;;;4916146;29;20259;-76
2023/09/12 03:42:11;;;;;;;13.23;7.33;;;;;;;;;;4913798;29;20178;-76
2023/09/12 03:44:37;;;;;;;11.43;6.97;;;;;;;;;;4920066;29;20269;-76
2023/09/12 03:47:04;;;;;;;12.53;7.40;;;;;;;;;;4900182;29;20208;-76
2023/09/12 03:49:30;;;;;;;13.47;7.73;;;;;;;;;;4917098;29;20281;-76
2023/09/12 03:51:56;;;;;;;19.70;9.10;;;;;;;;;;4917389;29;20202;-76
2023/09/12 03:54:23;;;;;;;12.77;7.93;;;;;;;;;;4919023;29;20739;-76
2023/09/12 03:56:49;;;;;;;14.03;8.33;;;;;;;;;;4918432;29;20235;-76
2023/09/12 03:59:15;;;;;;;17.17;8.77;;;;;;;;;;4916552;29;20265;-76
2023/09/12 04:01:41;;;;;;;13.20;8.03;;;;;;;;;;4918685;29;20249;-76
2023/09/12 04:04:07;;;;;;;14.80;7.67;;;;;;;;;;4914876;29;20195;-78
2023/09/12 04:06:33;;;;;;;14.77;7.90;;;;;;;;;;4910245;29;20671;-76
2023/09/12 04:09:00;;;;;;;14.87;8.53;;;;;;;;;;4916733;29;20667;-76
2023/09/12 04:11:26;;;;;;;15.53;8.53;;;;;;;;;;4898103;29;20294;-76
2023/09/12 04:13:52;;;;;;;13.13;8.03;;;;;;;;;;4901505;29;20685;-76
2023/09/12 04:16:18;;;;;;;10.47;7.23;;;;;;;;;;4911906;29;20204;-76
2023/09/12 04:18:45;;;;;;;12.97;7.53;;;;;;;;;;4917186;29;20214;-76
2023/09/12 04:21:11;;;;;;;13.93;7.40;;;;;;;;;;4928726;29;20253;-79
2023/09/12 04:23:37;;;;;;;15.10;8.47;;;;;;;;;;4926561;29;20239;-79
2023/09/12 04:26:03;;;;;;;12.43;8.70;;;;;;;;;;4902778;29;20312;-76
2023/09/12 04:28:30;;;;;;;12.53;8.07;;;;;;;;;;4918635;29;20191;-76
2023/09/12 04:31:03;;;;;;;12.37;8.40;;;;;;;;;;4916893;29;20653;-76
2023/09/12 04:33:30;;;;;;;11.53;8.33;;;;;;;;;;4918800;29;20291;-76
2023/09/12 04:35:58;;;;;;;13.07;7.93;;;;;;;;;;4902418;29;20576;-76
2023/09/12 04:38:24;;;;;;;15.03;9.03;;;;;;;;;;4917924;29;20722;-76
2023/09/12 04:40:54;;;;;;;12.47;8.77;;;;;;;;;;4918153;29;20665;-76
2023/09/12 04:43:20;;;;;;;13.63;8.23;;;;;;;;;;4918885;29;20647;-76
2023/09/12 04:45:46;;;;;;;18.43;9.33;;;;;;;;;;4913332;29;20211;-76
2023/09/12 04:48:12;;;;;;;12.00;8.50;;;;;;;;;;4916663;29;20255;-76
2023/09/12 04:50:42;;;;;;;16.43;9.10;;;;;;;;;;4914569;29;20205;-76
2023/09/12 04:53:09;;;;;;;12.43;8.73;;;;;;;;;;4911157;29;20187;-76
2023/09/12 04:55:38;;;;;;;13.93;8.43;;;;;;;;;;4902003;29;20214;-76
2023/09/12 04:58:07;;;;;;;12.70;9.00;;;;;;;;;;4903645;29;20203;-76
2023/09/12 05:00:34;;;;;;;16.23;9.50;;;;;;;;;;4919411;29;20245;-77
2023/09/12 05:03:01;;;;;;;12.10;9.00;;;;;;;;;;4918264;29;20508;-77
2023/09/12 05:05:27;;;;;;;12.40;8.50;;;;;;;;;;4913117;29;20458;-77
2023/09/12 05:07:53;;;;;;;15.93;8.60;;;;;;;;;;4913239;29;20246;-77
2023/09/12 05:10:20;;;;;;;11.93;8.83;;;;;;;;;;4913310;29;20186;-78
2023/09/12 05:12:47;;;;;;;16.53;9.00;;;;;;;;;;4915685;29;20267;-76
2023/09/12 05:15:13;;;;;;;17.63;10.00;;;;;;;;;;4913095;29;20191;-77
2023/09/12 05:17:39;;;;;;;13.27;9.70;;;;;;;;;;4914616;29;20196;-78
2023/09/12 05:20:06;;;;;;;14.97;9.30;;;;;;;;;;4916391;29;20236;-79
2023/09/12 05:22:32;;;;;;;14.43;9.30;;;;;;;;;;4898551;29;20647;-81
2023/09/12 05:24:58;;;;;;;19.50;10.93;;;;;;;;;;4906349;29;20197;-80
2023/09/12 05:27:24;;;;;;;15.80;9.53;;;;;;;;;;4916635;29;20215;-78
2023/09/12 05:29:51;;;;;;;13.17;8.37;;;;;;;;;;4921080;29;20268;-78
2023/09/12 05:32:17;;;;;;;15.57;9.23;;;;;;;;;;4884736;29;20199;-77
2023/09/12 05:34:45;;;;;;;14.87;8.77;;;;;;;;;;4914849;29;20219;-77
2023/09/12 05:37:11;;;;;;;13.00;9.37;;;;;;;;;;4912743;29;20765;-78
2023/09/12 05:39:37;;;;;;;13.43;10.70;;;;;;;;;;4920032;29;20226;-78
2023/09/12 05:42:03;;;;;;;15.20;10.37;;;;;;;;;;4926119;29;20213;-78
2023/09/12 05:44:30;;;;;;;14.73;9.80;;;;;;;;;;4899438;29;20205;-78
2023/09/12 05:46:56;;;;;;;18.73;9.80;;;;;;;;;;4919360;29;20553;-78
2023/09/12 05:49:22;;;;;;;20.20;9.53;;;;;;;;;;4910573;29;20203;-80
2023/09/12 05:51:48;;;;;;;12.00;9.30;;;;;;;;;;4882207;29;20203;-79
2023/09/12 05:54:15;;;;;;;13.70;8.47;;;;;;;;;;4920025;29;20225;-78
2023/09/12 05:56:41;;;;;;;13.83;9.27;;;;;;;;;;4921302;29;20242;-80
2023/09/12 05:59:07;;;;;;;12.37;8.57;;;;;;;;;;4901775;29;20222;-86
2023/09/12 06:01:34;;;;;;;17.20;9.40;;;;;;;;;;4912264;29;20184;-81
2023/09/12 06:04:02;;;;;;;17.27;9.00;;;;;;;;;;4932953;29;20236;-81
2023/09/12 06:06:28;;;;;;;16.50;9.30;;;;;;;;;;4904109;29;20218;-82
2023/09/12 06:08:55;;;;;;;16.03;9.03;;;;;;;;;;4912312;29;20190;-81
2023/09/12 06:11:21;;;;;;;13.63;9.07;;;;;;;;;;4934818;29;20190;-81
2023/09/12 06:13:48;;;;;;;12.57;8.87;;;;;;;;;;4917094;29;20291;-81
2023/09/12 06:16:14;;;;;;;14.83;9.07;;;;;;;;;;4926304;29;20210;-81
2023/09/12 06:18:40;;;;;;;18.17;9.27;;;;;;;;;;4919500;29;20350;-81
2023/09/12 06:21:08;;;;;;;13.30;8.23;;;;;;;;;;4920605;29;20202;-81
2023/09/12 06:23:34;;;;;;;18.80;9.77;;;;;;;;;;4917115;29;20185;-81
2023/09/12 06:26:01;;;;;;;13.20;8.30;;;;;;;;;;4906864;29;20221;-81
2023/09/12 06:28:27;;;;;;;11.27;8.17;;;;;;;;;;4921218;29;20281;-81
2023/09/12 06:30:53;;;;;;;13.90;8.57;;;;;;;;;;4924799;29;20197;-81
2023/09/12 06:33:19;;;;;;;14.33;8.03;;;;;;;;;;4917329;29;20186;-81
2023/09/12 06:35:55;;;;;;;16.60;8.57;;;;;;;;;;4921931;29;20576;-81
2023/09/12 06:38:22;;;;;;;16.77;8.30;;;;;;;;;;4905106;29;20735;-81
2023/09/12 06:40:49;;;;;;;13.87;8.67;;;;;;;;;;4900911;29;20190;-81
2023/09/12 06:43:15;;;;;;;17.80;8.30;;;;;;;;;;4923458;29;20218;-81
2023/09/12 06:45:41;;;;;;;12.27;7.70;;;;;;;;;;4919150;29;20207;-81
2023/09/12 06:48:08;;;;;;;12.50;8.20;;;;;;;;;;4922194;29;20352;-82
2023/09/12 06:50:34;;;;;;;13.33;8.50;;;;;;;;;;4919681;29;20186;-81
2023/09/12 06:53:00;;;;;;;17.57;8.73;;;;;;;;;;4936712;29;20182;-82
2023/09/12 06:55:26;;;;;;;21.07;10.27;;;;;;;;;;4911989;29;20207;-82
2023/09/12 06:57:52;;;;;;;13.80;9.40;;;;;;;;;;4920285;29;20258;-81
2023/09/12 07:00:18;;;;;;;15.37;9.30;;;;;;;;;;4922157;29;20288;-81
2023/09/12 07:02:44;;;;;;;14.27;8.80;;;;;;;;;;4937325;29;20198;-82
2023/09/12 07:05:10;;;;;;;17.87;9.57;;;;;;;;;;4907669;29;20197;-82
2023/09/12 07:07:37;;;;;;;17.40;9.27;;;;;;;;;;4921713;29;20681;-81
2023/09/12 07:10:03;;;;;;;15.40;10.00;;;;;;;;;;4919623;29;20665;-81
2023/09/12 07:12:29;;;;;;;14.13;9.20;;;;;;;;;;4920179;29;20539;-81
2023/09/12 07:14:55;;;;;;;19.20;9.70;;;;;;;;;;4903219;29;20597;-82
2023/09/12 07:17:22;;;;;;;18.73;11.00;;;;;;;;;;4887078;29;20606;-81
2023/09/12 07:19:48;;;;;;;18.53;10.73;;;;;;;;;;4923079;29;20221;-81
2023/09/12 07:22:14;;;;;;;12.90;10.23;;;;;;;;;;4924549;29;20197;-81
2023/09/12 07:24:40;;;;;;;15.60;10.77;;;;;;;;;;4924310;29;20282;-82
2023/09/12 07:27:06;;;;;;;21.13;11.43;;;;;;;;;;4908171;29;20221;-81
2023/09/12 07:29:32;;;;;;;18.30;11.37;;;;;;;;;;4920932;29;20198;-81
2023/09/12 07:31:59;;;;;;;19.57;11.00;;;;;;;;;;4924351;29;20193;-81
2023/09/12 07:34:25;;;;;;;15.77;11.23;;;;;;;;;;4928135;29;20672;-81
2023/09/12 07:36:51;;;;;;;16.80;11.00;;;;;;;;;;4928824;29;20213;-81
2023/09/12 07:39:17;;;;;;;18.53;11.67;;;;;;;;;;4919719;29;20214;-82
2023/09/12 07:41:43;;;;;;;18.43;11.77;;;;;;;;;;4923343;29;20187;-81
2023/09/12 07:44:11;;;;;;;19.53;13.53;;;;;;;;;;4919739;29;20217;-82
2023/09/12 07:46:40;;;;;;;21.17;11.63;;;;;;;;;;4900514;29;20218;-81
2023/09/12 07:49:08;;;;;;;13.53;9.93;;;;;;;;;;4922294;29;20263;-81
2023/09/12 07:51:34;;;;;;;16.27;10.53;;;;;;;;;;4922167;29;20242;-81
2023/09/12 07:54:00;;;;;;;16.40;11.00;;;;;;;;;;4918445;29;20209;-81
2023/09/12 07:56:27;;;;;;;15.87;10.10;;;;;;;;;;4922496;29;20225;-82
2023/09/12 07:58:53;;;;;;;14.30;10.60;;;;;;;;;;4925769;29;20586;-81
2023/09/12 08:01:19;;;;;;;17.53;11.80;;;;;;;;;;4899319;29;20226;-81
2023/09/12 08:03:45;;;;;;;19.87;10.93;;;;;;;;;;4927981;29;20188;-81
2023/09/12 08:06:11;;;;;;;14.97;10.27;;;;;;;;;;4927564;29;20198;-81
2023/09/12 08:08:38;;;;;;;15.80;10.30;;;;;;;;;;4931306;29;20214;-81
2023/09/12 08:11:04;;;;;;;19.57;11.17;;;;;;;;;;4916837;29;20195;-82
2023/09/12 08:13:30;;;;;;;15.87;10.13;;;;;;;;;;4930350;29;20183;-81
2023/09/12 08:15:57;;;;;;;18.27;10.23;;;;;;;;;;4929629;29;20292;-81
2023/09/12 08:18:33;;;;;;;16.10;10.83;;;;;;;;;;4925513;29;20208;-81
2023/09/12 08:20:59;;;;;;;15.03;9.57;;;;;;;;;;4925711;29;20699;-81
2023/09/12 08:23:26;;;;;;;18.80;11.23;;;;;;;;;;4929726;29;20178;-81
2023/09/12 08:25:52;;;;;;;16.37;11.70;;;;;;;;;;4920275;29;20214;-81
2023/09/12 08:28:18;;;;;;;18.07;11.00;;;;;;;;;;4892504;29;20199;-81
2023/09/12 08:30:47;;;;;;;16.43;12.23;;;;;;;;;;4931944;29;20264;-81
2023/09/12 08:33:13;;;;;;;17.03;11.53;;;;;;;;;;4944076;29;20190;-82
2023/09/12 08:35:40;;;;;;;17.80;11.90;;;;;;;;;;4916732;29;20206;-82
2023/09/12 08:38:06;;;;;;;17.63;12.80;;;;;;;;;;4924230;29;20254;-82
2023/09/12 08:40:35;;;;;;;16.17;11.33;;;;;;;;;;4936533;29;20238;-82
2023/09/12 08:43:03;;;;;;;20.97;13.83;;;;;;;;;;4928040;29;20205;-81
2023/09/12 08:45:30;;;;;;;20.27;13.10;;;;;;;;;;4931770;29;20200;-82
2023/09/12 08:47:57;;;;;;;17.63;12.47;;;;;;;;;;4911516;29;20256;-82
2023/09/12 08:50:24;;;;;;;16.90;11.67;;;;;;;;;;4926010;29;20213;-81
2023/09/12 08:52:50;;;;;;;15.43;10.93;;;;;;;;;;4926224;29;20199;-82
2023/09/12 08:55:16;;;;;;;18.03;10.97;;;;;;;;;;4923127;29;20195;-82
2023/09/12 08:57:43;;;;;;;20.67;11.47;;;;;;;;;;4921799;29;20279;-82
2023/09/12 09:00:14;;;;;;;14.93;10.37;;;;;;;;;;4923047;29;20212;-84
2023/09/12 09:02:43;;;;;;;14.27;10.13;;;;;;;;;;4920208;29;20188;-84
2023/09/12 09:05:10;;;;;;;17.40;11.40;;;;;;;;;;4902282;29;20210;-85
2023/09/12 09:07:37;;;;;;;16.13;10.27;;;;;;;;;;4891623;29;20211;-85
2023/09/12 09:10:05;;;;;;;15.80;9.83;;;;;;;;;;4913585;29;20187;-85
2023/09/12 09:12:31;;;;;;;15.03;9.47;;;;;;;;;;4905179;29;20217;-84
2023/09/12 09:14:57;;;;;;;19.07;10.13;;;;;;;;;;4925755;29;20601;-84
2023/09/12 09:17:24;;;;;;;13.73;9.37;;;;;;;;;;4903766;29;20210;-84
2023/09/12 09:19:50;;;;;;;15.07;10.50;;;;;;;;;;4909152;29;20823;-84
2023/09/12 09:22:16;;;;;;;15.00;10.00;;;;;;;;;;4919275;29;20218;-84
2023/09/12 09:24:42;;;;;;;11.97;8.70;;;;;;;;;;4906703;29;20201;-84
2023/09/12 09:27:09;;;;;;;13.47;9.60;;;;;;;;;;4935032;29;20212;-85
2023/09/12 09:29:47;;;;;;;13.10;9.73;;;;;;;;;;4920580;29;20198;-85
2023/09/12 09:32:21;;;;;;;13.87;9.27;;;;;;;;;;4901738;29;20253;-85
2023/09/12 09:34:48;;;;;;;11.73;9.40;;;;;;;;;;4931892;29;20190;-85
2023/09/12 09:37:15;;;;;;;11.50;9.10;;;;;;;;;;4909606;29;20226;-84
2023/09/12 09:39:41;;;;;;;13.63;9.20;;;;;;;;;;4906212;29;20218;-84
2023/09/12 09:42:10;;;;;;;14.23;9.63;;;;;;;;;;4921957;29;20192;-85
2023/09/12 09:44:36;;;;;;;10.93;9.83;;;;;;;;;;4902497;29;20195;-85
2023/09/12 09:47:03;;;;;;;13.63;10.53;;;;;;;;;;4935959;29;20240;-85
2023/09/12 09:49:33;;;;;;;14.87;10.60;;;;;;;;;;4908886;29;20446;-85
2023/09/12 09:52:00;;;;;;;12.27;9.63;;;;;;;;;;4925836;29;20189;-85
2023/09/12 09:54:26;;;;;;;13.80;9.57;;;;;;;;;;4923508;29;20195;-84
2023/09/12 09:56:56;;;;;;;9.97;8.97;;;;;;;;;;4908440;29;20211;-84
2023/09/12 09:59:23;;;;;;;12.03;8.90;;;;;;;;;;4938288;29;20218;-84
2023/09/12 10:01:53;;;;;;;10.83;8.67;;;;;;;;;;4909494;29;20611;-85
2023/09/12 10:04:20;;;;;;;13.27;9.17;;;;;;;;;;4923299;29;20229;-85
2023/09/12 10:06:46;;;;;;;10.83;9.20;;;;;;;;;;4902659;29;20215;-85
2023/09/12 10:09:13;;;;;;;15.37;9.27;;;;;;;;;;4924497;29;20200;-85
2023/09/12 10:11:40;;;;;;;9.83;8.77;;;;;;;;;;4906471;29;20206;-85
2023/09/12 10:14:07;;;;;;;12.43;8.70;;;;;;;;;;4916015;29;20210;-84
2023/09/12 10:16:33;;;;;;;11.13;8.87;;;;;;;;;;4882267;29;20364;-84
2023/09/12 10:19:18;;;;;;;9.63;8.30;;;;;;;;;;4926326;29;20662;-83
2023/09/12 10:21:51;;;;;;;8.90;8.00;;;;;;;;;;4897848;29;20202;-83
2023/09/12 10:24:17;;;;;;;10.07;9.07;;;;;;;;;;4910926;29;20477;-83
2023/09/12 10:26:45;;;;;;;9.73;8.80;;;;;;;;;;4916105;29;20637;-83
2023/09/12 10:29:17;;;;;;;11.10;8.43;;;;;;;;;;4892824;29;20293;-84
2023/09/12 10:31:44;;;;;;;12.03;9.00;;;;;;;;;;4900524;29;20194;-83
2023/09/12 10:34:12;;;;;;;10.23;8.53;;;;;;;;;;4894257;29;20751;-84
2023/09/12 10:36:42;;;;;;;11.27;8.83;;;;;;;;;;4887210;29;20489;-83
2023/09/12 10:39:09;;;;;;;14.07;8.73;;;;;;;;;;4931805;29;20241;-84
2023/09/12 10:41:37;;;;;;;13.10;8.63;;;;;;;;;;4909666;29;20202;-84
2023/09/12 10:44:09;;;;;;;13.00;8.80;;;;;;;;;;4906640;29;20201;-83
2023/09/12 10:46:39;;;;;;;14.23;8.73;;;;;;;;;;4914693;29;20210;-83
2023/09/12 10:49:10;;;;;;;11.27;9.40;;;;;;;;;;4941329;29;20212;-84
2023/09/12 10:51:40;;;;;;;11.77;8.23;;;;;;;;;;4906373;29;20395;-83
2023/09/12 10:54:10;;;;;;;10.60;8.90;;;;;;;;;;4925415;29;20220;-83
2023/09/12 10:56:36;;;;;;;11.30;8.27;;;;;;;;;;4915327;29;20285;-83
2023/09/12 10:59:03;;;;;;;12.20;8.17;;;;;;;;;;4942146;29;20792;-83
2023/09/12 11:01:30;;;;;;;10.97;8.53;;;;;;;;;;4892825;29;20186;-83
2023/09/12 11:03:57;;;;;;;11.70;8.30;;;;;;;;;;4916076;29;20285;-83
2023/09/12 11:06:28;;;;;;;8.97;8.07;;;;;;;;;;4909244;29;20244;-83
2023/09/12 11:09:13;;;;;;;11.67;8.60;;;;;;;;;;4921127;29;20281;-83
2023/09/12 11:11:41;;;;;;;9.40;8.17;;;;;;;;;;4921550;29;20216;-86
2023/09/12 11:14:08;;;;;;;9.47;8.37;;;;;;;;;;4888750;29;20229;-77
2023/09/12 11:16:35;;;;;;;13.43;8.83;;;;;;;;;;4922287;29;20210;-78
2023/09/12 11:19:18;;;;;;;12.87;8.63;;;;;;;;;;4920671;29;20236;-77
2023/09/12 11:21:45;;;;;;;12.13;8.00;;;;;;;;;;4922646;29;20186;-78
2023/09/12 11:24:12;;;;;;;9.83;8.43;;;;;;;;;;4916327;29;20643;-79
2023/09/12 11:26:54;;;;;;;10.37;8.30;;;;;;;;;;4913818;29;20206;-78
2023/09/12 11:29:20;;;;;;;10.57;7.60;;;;;;;;;;4913983;29;20200;-78
2023/09/12 11:31:52;;;;;;;11.33;8.77;;;;;;;;;;4919693;29;20192;-81
2023/09/12 11:34:18;;;;;;;10.80;8.93;;;;;;;;;;4934744;29;20658;-76
2023/09/12 11:36:46;;;;;;;10.27;8.37;;;;;;;;;;4915118;29;20212;-76
2023/09/12 11:39:25;;;;;;;13.87;9.40;;;;;;;;;;4922093;29;20686;-77
2023/09/12 11:41:51;;;;;;;13.57;9.10;;;;;;;;;;4914983;29;20193;-78
2023/09/12 11:44:19;;;;;;;9.50;8.50;;;;;;;;;;4919196;29;20182;-77
2023/09/12 11:46:47;;;;;;;9.67;8.10;;;;;;;;;;4915680;29;20211;-76
2023/09/12 11:49:14;;;;;;;9.40;8.43;;;;;;;;;;4917223;29;20199;-77
2023/09/12 11:51:47;;;;;;;10.10;8.07;;;;;;;;;;4911187;29;20270;-77
2023/09/12 11:54:15;;;;;;;11.40;9.00;;;;;;;;;;4913641;29;20196;-76
2023/09/12 11:56:41;;;;;;;11.37;8.57;;;;;;;;;;4918288;29;20249;-77
2023/09/12 11:59:08;;;;;;;10.83;9.13;;;;;;;;;;4913422;29;20208;-77
2023/09/12 12:01:34;;;;;;;11.13;8.53;;;;;;;;;;4914537;29;20652;-77
2023/09/12 12:04:00;;;;;;;10.90;8.63;;;;;;;;;;4917996;29;20186;-78
2023/09/12 12:06:26;;;;;;;9.47;8.40;;;;;;;;;;4913550;29;20752;-77
2023/09/12 12:08:54;;;;;;;12.07;8.80;;;;;;;;;;4921092;29;20203;-77
2023/09/12 12:11:20;;;;;;;12.43;8.60;;;;;;;;;;4934125;29;20669;-77
2023/09/12 12:13:47;;;;;;;9.73;8.73;;;;;;;;;;4920967;29;20214;-77
2023/09/12 12:16:16;;;;;;;12.33;8.47;;;;;;;;;;4933549;29;21504;-77
2023/09/12 12:18:43;;;;;;;12.27;9.17;;;;;;;;;;4920655;29;20308;-77
2023/09/12 12:21:09;;;;;;;9.67;7.80;;;;;;;;;;4923406;29;20295;-77
2023/09/12 12:23:35;;;;;;;9.83;8.20;;;;;;;;;;4913731;29;20187;-77
2023/09/12 12:26:11;;;;;;;12.80;7.83;;;;;;;;;;4916992;29;20346;-78
2023/09/12 12:28:37;;;;;;;9.83;7.70;;;;;;;;;;4916456;29;20199;-78
2023/09/12 12:31:03;;;;;;;9.30;7.97;;;;;;;;;;4920958;29;20195;-79
2023/09/12 12:33:29;;;;;;;9.37;8.37;;;;;;;;;;4912548;29;20208;-80
2023/09/12 12:36:02;;;;;;;12.93;7.93;;;;;;;;;;4924282;29;20686;-81
2023/09/12 12:38:32;;;;;;;8.93;7.40;;;;;;;;;;4916398;29;20190;-82
2023/09/12 12:40:58;;;;;;;11.00;8.27;;;;;;;;;;4915981;29;20256;-81
2023/09/12 12:43:24;;;;;;;11.60;7.90;;;;;;;;;;4926908;29;20698;-81
2023/09/12 12:45:54;;;;;;;11.93;7.30;;;;;;;;;;4927580;29;20234;-81
2023/09/12 12:48:30;;;;;;;13.67;7.67;;;;;;;;;;4923023;29;20195;-81
2023/09/12 12:50:56;;;;;;;11.40;7.67;;;;;;;;;;4922690;29;20693;-81
2023/09/12 12:53:41;;;;;;;8.57;7.43;;;;;;;;;;4920321;29;20190;-81
2023/09/12 12:56:07;;;;;;;10.07;7.40;;;;;;;;;;4922169;29;20206;-83
2023/09/12 12:58:35;;;;;;;10.43;6.77;;;;;;;;;;4920910;29;20310;-81
2023/09/12 13:01:01;;;;;;;9.93;7.07;;;;;;;;;;4921841;29;20189;-82
2023/09/12 13:03:27;;;;;;;8.43;7.07;;;;;;;;;;4923608;29;20264;-81
2023/09/12 13:05:53;;;;;;;9.10;6.20;;;;;;;;;;4925460;29;20208;-82
2023/09/12 13:08:19;;;;;;;9.70;7.13;;;;;;;;;;4918126;29;20180;-82
2023/09/12 13:10:45;;;;;;;7.30;6.60;;;;;;;;;;4924653;29;20781;-81
2023/09/12 13:13:12;;;;;;;11.87;6.87;;;;;;;;;;4925461;29;20184;-81
2023/09/12 13:15:38;;;;;;;8.47;6.70;;;;;;;;;;4916831;29;20209;-81
2023/09/12 13:18:04;;;;;;;9.27;6.27;;;;;;;;;;4919997;29;20192;-82
2023/09/12 13:20:30;;;;;;;9.80;6.53;;;;;;;;;;4919100;29;20229;-81
2023/09/12 13:22:56;;;;;;;9.10;6.10;;;;;;;;;;4917766;29;20188;-80
2023/09/12 13:25:23;;;;;;;9.10;6.50;;;;;;;;;;4918239;29;20189;-80
2023/09/12 13:27:49;;;;;;;8.23;6.53;;;;;;;;;;4919489;29;20192;-80
2023/09/12 13:30:16;;;;;;;8.30;6.63;;;;;;;;;;4917846;29;20278;-80
2023/09/12 13:32:42;;;;;;;8.93;6.70;;;;;;;;;;4915786;29;20194;-79
2023/09/12 13:35:08;;;;;;;8.38;6.32;;;;;;;;;;4919735;29;20574;-80
2023/09/12 13:37:34;;;;;;;7.40;6.15;;;;;;;;;;4912321;29;20193;-80
2023/09/12 13:40:00;;;;;;;8.23;6.32;;;;;;;;;;4920194;29;20266;-80
2023/09/12 13:42:30;;;;;;;7.25;6.18;;;;;;;;;;4932099;29;20217;-79
2023/09/12 13:44:56;;;;;;;7.28;6.00;;;;;;;;;;4918241;29;20181;-79
2023/09/12 13:47:23;;;;;;;7.07;6.10;;;;;;;;;;4917953;29;20685;-80
2023/09/12 13:49:51;;;;;;;8.02;6.05;;;;;;;;;;4915291;29;20666;-80
2023/09/12 13:52:17;;;;;;;7.22;6.20;;;;;;;;;;4920783;29;20888;-80
2023/09/12 13:54:44;;;;;;;8.77;5.93;;;;;;;;;;4915893;29;20263;-80
2023/09/12 13:57:10;;;;;;;8.27;6.10;;;;;;;;;;4920261;29;20221;-81
2023/09/12 13:59:36;;;;;;;7.97;6.30;;;;;;;;;;4913761;29;20593;-80
2023/09/12 14:02:02;;;;;;;7.47;6.50;;;;;;;;;;4925328;29;20244;-80
2023/09/12 14:04:28;;;;;;;9.02;6.00;;;;;;;;;;4917368;29;20223;-80
2023/09/12 14:06:54;;;;;;;8.20;5.70;;;;;;;;;;4916086;29;20222;-79
2023/09/12 14:09:21;;;;;;;7.35;6.20;;;;;;;;;;4912208;29;20214;-80
2023/09/12 14:11:48;;;;;;;8.15;6.60;;;;;;;;;;4920472;29;20220;-80
2023/09/12 14:14:14;;;;;;;7.05;6.35;;;;;;;;;;4923022;29;20191;-80
2023/09/12 14:16:40;;;;;;;8.00;6.55;;;;;;;;;;4914677;29;20225;-80
2023/09/12 14:19:06;;;;;;;7.30;6.07;;;;;;;;;;4923921;29;20836;-79
2023/09/12 14:21:32;;;;;;;9.18;6.22;;;;;;;;;;4925718;29;20715;-79
2023/09/12 14:23:58;;;;;;;6.32;5.72;;;;;;;;;;4923327;29;20200;-80
2023/09/12 14:26:25;;;;;;;8.48;5.93;;;;;;;;;;4924456;29;20300;-79
2023/09/12 14:28:51;;;;;;;7.68;6.15;;;;;;;;;;4916096;29;20659;-80
2023/09/12 14:31:17;;;;;;;9.93;6.20;;;;;;;;;;4919754;29;20284;-80